Time;durP1;ratioP1;P1;durP2;ratioP2;P2;SDS_P1;SDS_P2;PMS_P1;PMS_P2;Temp;Humidity;BMP_temperature;BMP_pressure;BME280_temperature;BME280_humidity;BME280_pressure;Samples;Min_cycle;Max_cycle;Signal;HPM_P1;HPM_P2
2022/11/19 00:01:15;;;;;;;4.88;4.40;;;2.60;99.90;;;;;;6068832;23;91752;-75
2022/11/19 00:03:42;;;;;;;3.63;3.33;;;2.50;99.90;;;;;;6096253;23;93182;-75
2022/11/19 00:06:21;;;;;;;4.70;3.58;;;2.50;99.90;;;;;;6095868;23;93054;-74
2022/11/19 00:08:49;;;;;;;4.00;3.53;;;2.40;99.90;;;;;;6094903;23;94853;-75
2022/11/19 00:12:53;;;;;;;4.28;3.83;;;2.40;99.90;;;;;;6068669;23;104033;-74
2022/11/19 00:14:11;;;;;;;4.75;3.88;;;2.30;99.90;;;;;;6095862;23;93143;-74
2022/11/19 00:16:38;;;;;;;5.32;4.25;;;2.30;99.90;;;;;;6094825;23;92749;-74
2022/11/19 00:19:06;;;;;;;4.57;3.88;;;2.20;99.90;;;;;;6069409;23;92400;-74
2022/11/19 00:21:33;;;;;;;5.88;4.65;;;2.20;99.90;;;;;;6094711;23;92526;-74
2022/11/19 00:24:00;;;;;;;4.53;3.60;;;2.20;99.90;;;;;;6069258;23;96080;-74
2022/11/19 00:26:27;;;;;;;6.00;4.25;;;2.10;99.90;;;;;;6070185;23;93033;-75
2022/11/19 00:28:54;;;;;;;4.80;3.60;;;2.10;99.90;;;;;;6069518;23;92404;-74
2022/11/19 00:31:21;;;;;;;3.67;3.20;;;2.10;99.90;;;;;;6094445;23;92353;-74
2022/11/19 00:33:53;;;;;;;7.40;6.70;;;2.00;99.90;;;;;;6094630;23;96181;-74
2022/11/19 00:36:21;;;;;;;5.28;4.22;;;2.00;99.90;;;;;;6064341;23;97687;-74
2022/11/19 00:38:48;;;;;;;6.18;4.60;;;2.00;99.90;;;;;;6065310;23;92430;-74
2022/11/19 00:41:15;;;;;;;5.70;4.18;;;1.90;99.90;;;;;;6066512;23;92437;-74
2022/11/19 00:43:51;;;;;;;4.25;3.85;;;1.90;99.90;;;;;;6066518;23;93127;-74
2022/11/19 00:46:22;;;;;;;5.38;4.43;;;1.80;99.90;;;;;;6066392;23;93011;-74
2022/11/19 00:48:51;;;;;;;5.40;4.90;;;1.80;99.90;;;;;;6066875;23;92384;-74
2022/11/19 00:51:20;;;;;;;7.30;4.05;;;1.70;99.90;;;;;;6064987;23;91782;-74
2022/11/19 00:53:47;;;;;;;5.97;4.85;;;1.70;99.90;;;;;;6066506;23;93252;-74
2022/11/19 00:56:16;;;;;;;6.63;4.57;;;1.60;99.90;;;;;;6066353;23;93013;-74
2022/11/19 00:58:43;;;;;;;8.20;4.70;;;1.60;99.90;;;;;;6065413;23;94726;-74
2022/11/19 01:01:11;;;;;;;5.35;4.47;;;1.60;99.90;;;;;;6065430;23;92432;-73
2022/11/19 01:03:39;;;;;;;5.75;4.15;;;1.60;99.90;;;;;;6064847;23;94635;-73
2022/11/19 01:06:08;;;;;;;5.45;4.68;;;1.50;99.90;;;;;;6064937;23;92410;-73
2022/11/19 01:08:35;;;;;;;4.95;4.40;;;1.50;99.90;;;;;;6064484;23;92415;-73
2022/11/19 01:11:19;;;;;;;5.82;4.75;;;1.50;99.90;;;;;;6064946;23;92367;-73
2022/11/19 01:13:46;;;;;;;4.65;3.83;;;1.50;99.90;;;;;;6066052;23;93152;-74
2022/11/19 01:16:16;;;;;;;5.18;4.25;;;1.50;99.90;;;;;;6066603;23;93428;-73
2022/11/19 01:18:46;;;;;;;5.22;4.65;;;1.40;99.90;;;;;;6064563;23;93078;-73
2022/11/19 01:21:14;;;;;;;6.28;4.82;;;1.40;99.90;;;;;;6040396;23;92497;-73
2022/11/19 01:23:42;;;;;;;5.47;4.97;;;1.40;99.90;;;;;;6039267;23;95529;-74
2022/11/19 01:26:11;;;;;;;5.63;4.35;;;1.40;99.90;;;;;;6064538;23;97881;-73
2022/11/19 01:28:39;;;;;;;5.47;4.15;;;1.40;99.90;;;;;;6066325;23;92383;-73
2022/11/19 01:31:11;;;;;;;5.18;4.20;;;1.30;99.90;;;;;;6064428;23;102440;-73
2022/11/19 01:33:39;;;;;;;6.30;4.75;;;1.30;99.90;;;;;;6064543;23;95733;-73
2022/11/19 01:36:11;;;;;;;6.07;4.55;;;1.20;99.90;;;;;;6091812;23;93006;-73
2022/11/19 01:38:38;;;;;;;6.53;5.13;;;1.20;99.90;;;;;;6095971;23;92436;-73
2022/11/19 01:41:06;;;;;;;4.30;3.90;;;1.20;99.90;;;;;;6070102;23;91815;-73
2022/11/19 01:43:55;;;;;;;6.55;4.72;;;1.20;99.90;;;;;;6095365;23;93283;-73
2022/11/19 01:46:25;;;;;;;5.88;4.68;;;1.20;99.90;;;;;;6069392;23;95608;-73
2022/11/19 01:48:58;;;;;;;5.07;4.57;;;1.20;99.90;;;;;;6094661;23;95167;-74
2022/11/19 01:51:29;;;;;;;5.33;4.83;;;1.10;99.90;;;;;;6069256;23;92498;-73
2022/11/19 01:54:00;;;;;;;5.00;4.15;;;1.10;99.90;;;;;;6069540;23;93114;-73
2022/11/19 01:56:28;;;;;;;6.00;5.00;;;1.10;99.90;;;;;;6095458;23;92785;-73
2022/11/19 01:59:04;;;;;;;4.72;3.80;;;1.10;99.90;;;;;;6069336;23;92398;-74
2022/11/19 02:01:31;;;;;;;5.75;3.90;;;1.10;99.90;;;;;;6069287;23;92620;-73
2022/11/19 02:04:00;;;;;;;5.70;4.53;;;1.00;99.90;;;;;;6068869;23;95543;-73
2022/11/19 02:06:29;;;;;;;4.93;4.03;;;1.00;99.90;;;;;;6069500;23;93983;-73
2022/11/19 02:08:56;;;;;;;4.97;3.55;;;1.00;99.90;;;;;;6095707;23;92297;-74
2022/11/19 02:11:31;;;;;;;6.53;3.92;;;0.90;99.90;;;;;;6068869;23;104177;-74
2022/11/19 02:14:16;;;;;;;5.57;4.75;;;0.90;99.90;;;;;;6093968;23;94834;-73
2022/11/19 02:17:04;;;;;;;4.80;4.30;;;0.90;99.90;;;;;;6095296;23;95417;-74
2022/11/19 02:19:49;;;;;;;5.93;4.63;;;0.80;99.90;;;;;;6069305;23;92962;-73
2022/11/19 02:22:19;;;;;;;4.32;3.75;;;0.80;99.90;;;;;;6095787;23;92388;-73
2022/11/19 02:24:52;;;;;;;5.70;4.30;;;0.70;99.90;;;;;;6094722;23;102164;-73
2022/11/19 02:27:44;;;;;;;6.70;4.35;;;0.70;99.90;;;;;;6095615;23;92926;-73
2022/11/19 02:30:16;;;;;;;5.32;4.68;;;0.70;99.90;;;;;;6069239;23;92460;-73
2022/11/19 02:33:02;;;;;;;5.85;3.78;;;0.70;99.90;;;;;;6069800;23;91666;-74
2022/11/19 02:36:23;;;;;;;5.80;4.68;;;0.60;99.90;;;;;;6068928;23;93423;-73
2022/11/19 02:38:57;;;;;;;5.85;4.65;;;0.60;99.90;;;;;;5976622;23;95367;-74
2022/11/19 02:41:32;;;;;;;5.82;4.90;;;0.50;99.90;;;;;;6091608;23;94764;-73
2022/11/19 02:46:58;;;;;;;5.88;4.65;;;0.50;99.90;;;;;;6096025;23;93255;-73
2022/11/19 02:49:28;;;;;;;5.95;4.45;;;0.40;99.90;;;;;;6095299;23;92829;-74
2022/11/19 02:51:56;;;;;;;7.13;3.65;;;0.40;99.90;;;;;;6068924;23;92335;-74
2022/11/19 02:54:24;;;;;;;5.18;3.83;;;0.40;99.90;;;;;;6095773;23;92432;-73
2022/11/19 02:56:53;;;;;;;6.75;4.53;;;0.40;99.90;;;;;;6068797;23;96391;-73
2022/11/19 03:05:16;;;;;;;7.28;4.75;;;0.20;99.90;;;;;;6027802;23;92335;-73
2022/11/19 03:07:43;;;;;;;6.45;4.85;;;0.20;99.90;;;;;;6093808;23;95622;-74
2022/11/19 03:10:13;;;;;;;7.28;5.43;;;0.20;99.90;;;;;;6069249;23;95275;-74
2022/11/19 03:12:50;;;;;;;6.18;4.38;;;0.20;99.90;;;;;;6044042;23;102052;-73
2022/11/19 03:18:42;;;;;;;6.20;5.00;;;0.10;99.90;;;;;;6095451;23;93308;-73
2022/11/19 03:21:15;;;;;;;6.77;4.90;;;0.10;99.90;;;;;;6095283;23;96095;-73
2022/11/19 03:23:49;;;;;;;4.32;3.53;;;0.10;99.90;;;;;;6095412;23;92280;-73
2022/11/19 03:26:38;;;;;;;5.95;5.03;;;0.10;99.90;;;;;;6069954;23;92544;-73
2022/11/19 03:29:09;;;;;;;5.13;4.63;;;0.10;99.90;;;;;;6068888;23;95820;-74
2022/11/19 03:31:39;;;;;;;5.70;5.10;;;0.00;99.90;;;;;;6069124;23;92768;-73
2022/11/19 03:34:16;;;;;;;7.15;5.55;;;0.00;99.90;;;;;;6094044;23;94693;-73
2022/11/19 03:36:45;;;;;;;6.38;4.70;;;0.00;99.90;;;;;;6069688;23;92378;-73
2022/11/19 03:39:15;;;;;;;4.97;4.25;;;0.10;99.90;;;;;;6096475;23;93176;-74
2022/11/19 03:41:47;;;;;;;5.18;4.18;;;0.00;99.90;;;;;;6069759;23;95595;-73
2022/11/19 03:44:32;;;;;;;5.95;5.30;;;0.00;99.90;;;;;;6095342;23;92329;-74
2022/11/19 03:47:03;;;;;;;5.35;4.43;;;0.10;99.90;;;;;;6070309;23;92358;-73
2022/11/19 03:49:35;;;;;;;4.68;4.15;;;0.00;99.90;;;;;;6096314;23;93043;-73
2022/11/19 03:52:23;;;;;;;5.97;5.30;;;0.00;99.90;;;;;;6095317;23;92961;-73
2022/11/19 03:54:50;;;;;;;5.93;4.30;;;0.00;99.90;;;;;;6096445;23;92394;-73
2022/11/19 03:57:20;;;;;;;4.20;3.80;;;0.00;99.90;;;;;;6070138;23;92447;-73
2022/11/19 03:59:46;;;;;;;5.38;4.05;;;0.00;99.90;;;;;;6094797;23;96466;-74
2022/11/19 04:02:14;;;;;;;5.03;4.28;;;-0.10;99.90;;;;;;6095730;23;105523;-74
2022/11/19 04:04:41;;;;;;;5.10;4.45;;;-0.10;99.90;;;;;;6045870;23;92483;-73
2022/11/19 04:07:11;;;;;;;5.47;4.70;;;-0.10;99.90;;;;;;6096642;23;92365;-73
2022/11/19 04:09:39;;;;;;;5.40;4.32;;;-0.10;99.90;;;;;;6069933;23;93352;-73
2022/11/19 04:12:11;;;;;;;5.47;4.45;;;-0.10;99.90;;;;;;6096538;23;92890;-73
2022/11/19 04:14:38;;;;;;;5.47;4.45;;;-0.10;99.90;;;;;;6096515;23;92373;-73
2022/11/19 04:17:05;;;;;;;6.03;4.60;;;-0.10;99.90;;;;;;6070375;23;91658;-73
2022/11/19 04:19:32;;;;;;;5.97;4.72;;;-0.10;99.90;;;;;;6096261;23;93204;-73
2022/11/19 04:21:59;;;;;;;5.53;4.70;;;-0.10;99.90;;;;;;6070142;23;92900;-73
2022/11/19 04:24:25;;;;;;;5.72;4.80;;;-0.20;99.90;;;;;;6094886;23;98125;-73
2022/11/19 04:26:52;;;;;;;7.95;5.22;;;-0.20;99.90;;;;;;6070230;23;92450;-73
2022/11/19 04:29:19;;;;;;;5.25;4.00;;;-0.20;99.90;;;;;;6021829;23;99243;-73
2022/11/19 04:31:46;;;;;;;6.10;4.65;;;-0.20;99.90;;;;;;6070016;23;92733;-73
2022/11/19 04:34:13;;;;;;;5.05;3.92;;;-0.30;99.90;;;;;;6069964;23;92338;-73
2022/11/19 04:36:41;;;;;;;6.40;5.07;;;-0.30;99.90;;;;;;6096720;23;92285;-73
2022/11/19 04:39:09;;;;;;;5.88;5.25;;;-0.30;99.90;;;;;;6069422;23;97459;-73
2022/11/19 04:41:37;;;;;;;6.43;4.18;;;-0.30;99.90;;;;;;6070905;23;91774;-73
2022/11/19 04:44:04;;;;;;;6.50;5.05;;;-0.30;99.90;;;;;;6096379;23;92305;-73
2022/11/19 04:46:31;;;;;;;7.13;5.18;;;-0.30;99.90;;;;;;6096692;23;92466;-73
2022/11/19 04:48:58;;;;;;;6.72;5.88;;;-0.30;99.90;;;;;;6094718;23;95495;-73
2022/11/19 04:51:25;;;;;;;6.47;4.72;;;-0.30;99.90;;;;;;6045759;23;97955;-73
2022/11/19 04:53:53;;;;;;;6.60;5.45;;;-0.40;99.90;;;;;;6070006;23;92464;-73
2022/11/19 04:56:20;;;;;;;5.55;4.75;;;-0.40;99.90;;;;;;6070288;23;92521;-73
2022/11/19 04:58:47;;;;;;;6.57;5.82;;;-0.40;99.90;;;;;;6096091;23;93171;-73
2022/11/19 05:01:14;;;;;;;7.60;4.85;;;-0.40;99.90;;;;;;6096025;23;103638;-73
2022/11/19 05:03:41;;;;;;;7.28;5.82;;;-0.40;99.90;;;;;;6096733;23;92460;-73
2022/11/19 05:06:08;;;;;;;5.60;4.45;;;-0.40;99.90;;;;;;6096786;23;91669;-73
2022/11/19 05:08:34;;;;;;;7.05;5.47;;;-0.50;99.90;;;;;;6096340;23;93338;-73
2022/11/19 05:11:01;;;;;;;8.68;6.03;;;-0.50;99.90;;;;;;6045608;23;95341;-73
2022/11/19 05:13:28;;;;;;;7.80;5.45;;;-0.50;99.90;;;;;;6068888;23;94829;-73
2022/11/19 05:15:55;;;;;;;6.95;6.30;;;-0.50;99.90;;;;;;6096343;23;92433;-73
2022/11/19 05:18:23;;;;;;;5.30;3.95;;;-0.50;99.90;;;;;;6096439;23;93104;-73
2022/11/19 05:20:50;;;;;;;5.38;4.70;;;-0.60;99.90;;;;;;6069303;23;95527;-73
2022/11/19 05:23:17;;;;;;;7.18;5.70;;;-0.60;99.90;;;;;;6096362;23;92357;-74
2022/11/19 05:25:44;;;;;;;6.32;5.65;;;-0.60;99.90;;;;;;6070063;23;92367;-73
2022/11/19 05:28:11;;;;;;;7.80;5.10;;;-0.60;99.90;;;;;;6096112;23;93179;-73
2022/11/19 05:30:38;;;;;;;7.93;5.95;;;-0.60;99.90;;;;;;6070068;23;101064;-73
2022/11/19 05:33:05;;;;;;;7.15;5.80;;;-0.70;99.90;;;;;;6096345;23;92311;-73
2022/11/19 05:35:32;;;;;;;8.43;6.55;;;-0.70;99.90;;;;;;6069814;23;92449;-73
2022/11/19 05:37:59;;;;;;;5.07;3.92;;;-0.70;99.90;;;;;;6067883;23;98306;-73
2022/11/19 05:40:26;;;;;;;7.93;6.03;;;-0.70;99.90;;;;;;6069370;23;97795;-73
2022/11/19 05:42:53;;;;;;;6.28;5.13;;;-0.70;99.90;;;;;;6096359;23;92364;-73
2022/11/19 05:45:20;;;;;;;8.27;6.53;;;-0.80;99.90;;;;;;6069823;23;92405;-73
2022/11/19 05:47:52;;;;;;;7.68;5.80;;;-0.70;99.90;;;;;;6096168;23;93073;-73
2022/11/19 05:50:19;;;;;;;8.00;6.50;;;-0.80;99.90;;;;;;6096217;23;92922;-73
2022/11/19 05:52:48;;;;;;;8.95;6.43;;;-0.80;99.90;;;;;;6096543;23;92497;-73
2022/11/19 05:55:15;;;;;;;6.95;5.72;;;-0.80;99.90;;;;;;6070695;23;91650;-73
2022/11/19 05:57:42;;;;;;;8.88;6.53;;;-0.80;99.90;;;;;;6096059;23;93151;-73
2022/11/19 06:00:10;;;;;;;8.32;5.88;;;-0.80;99.90;;;;;;6068759;23;95623;-73
2022/11/19 06:02:40;;;;;;;9.43;6.68;;;-0.80;99.90;;;;;;6095294;23;95479;-73
2022/11/19 06:05:07;;;;;;;8.18;6.47;;;-0.90;99.90;;;;;;6045343;23;92457;-73
2022/11/19 06:07:34;;;;;;;8.73;5.85;;;-0.80;99.90;;;;;;6069226;23;95879;-73
2022/11/19 06:10:01;;;;;;;9.50;7.72;;;-0.80;99.90;;;;;;6068778;23;108419;-74
2022/11/19 06:12:28;;;;;;;11.10;7.03;;;-0.90;99.90;;;;;;6096311;23;92373;-73
2022/11/19 06:14:55;;;;;;;8.20;6.18;;;-0.80;99.90;;;;;;6096232;23;92400;-73
2022/11/19 06:17:22;;;;;;;8.18;7.00;;;-0.90;99.90;;;;;;6045620;23;94795;-73
2022/11/19 06:19:49;;;;;;;8.73;6.60;;;-0.90;99.90;;;;;;6096614;23;92850;-73
2022/11/19 06:22:16;;;;;;;8.23;6.15;;;-0.90;99.90;;;;;;6070392;23;92403;-73
2022/11/19 06:24:43;;;;;;;10.00;6.60;;;-0.90;99.90;;;;;;6069802;23;92515;-72
2022/11/19 06:27:10;;;;;;;9.85;7.65;;;-0.90;99.90;;;;;;6067878;23;97723;-73
2022/11/19 06:29:37;;;;;;;8.85;6.90;;;-0.90;99.90;;;;;;6096232;23;95370;-73
2022/11/19 06:32:04;;;;;;;7.53;5.85;;;-0.90;99.90;;;;;;6096210;23;92439;-73
2022/11/19 06:34:31;;;;;;;8.27;6.43;;;-0.90;99.90;;;;;;6045673;23;92467;-73
2022/11/19 06:36:57;;;;;;;10.18;6.57;;;-1.00;99.90;;;;;;6070326;23;93303;-73
2022/11/19 06:39:24;;;;;;;8.77;7.05;;;-1.00;99.90;;;;;;6069755;23;92889;-73
2022/11/19 06:41:52;;;;;;;7.47;5.68;;;-1.00;99.90;;;;;;6069761;23;92476;-73
2022/11/19 06:44:19;;;;;;;9.27;6.18;;;-1.00;99.90;;;;;;6070178;23;92729;-73
2022/11/19 06:46:46;;;;;;;7.95;6.70;;;-1.00;99.90;;;;;;6069163;23;106215;-73
2022/11/19 06:49:12;;;;;;;9.13;6.50;;;-1.00;99.90;;;;;;6095750;23;92891;-73
2022/11/19 06:51:45;;;;;;;8.57;6.30;;;-1.00;99.90;;;;;;6045152;23;94809;-73
2022/11/19 06:54:12;;;;;;;9.10;6.28;;;-1.10;99.90;;;;;;6069724;23;92514;-73
2022/11/19 06:56:39;;;;;;;8.48;7.00;;;-1.10;99.90;;;;;;6095899;23;93256;-73
2022/11/19 06:59:06;;;;;;;10.48;7.25;;;-1.10;99.90;;;;;;6069105;23;95543;-73
2022/11/19 07:01:32;;;;;;;9.70;6.15;;;-1.10;99.90;;;;;;6069432;23;92977;-73
2022/11/19 07:03:59;;;;;;;9.27;7.43;;;-1.10;99.90;;;;;;6069682;23;92456;-73
2022/11/19 07:06:26;;;;;;;10.40;7.78;;;-1.10;99.90;;;;;;6069761;23;93129;-73
2022/11/19 07:08:53;;;;;;;9.88;6.95;;;-1.10;99.90;;;;;;6069889;23;95563;-73
2022/11/19 07:11:26;;;;;;;9.02;7.30;;;-1.10;99.90;;;;;;6070008;23;92405;-73
2022/11/19 07:13:56;;;;;;;8.82;6.88;;;-1.10;99.90;;;;;;6048234;23;92225;-73
2022/11/19 07:16:25;;;;;;;10.88;8.00;;;-1.10;99.90;;;;;;6069272;23;95601;-73
2022/11/19 07:18:52;;;;;;;10.45;7.65;;;-1.10;99.90;;;;;;6070243;23;96445;-73
2022/11/19 07:21:19;;;;;;;11.27;7.60;;;-1.10;99.90;;;;;;6070446;23;93051;-73
2022/11/19 07:23:46;;;;;;;7.32;5.68;;;-1.10;99.90;;;;;;6097055;23;92361;-73
2022/11/19 07:26:13;;;;;;;10.25;7.57;;;-1.10;99.90;;;;;;6096697;23;93214;-73
2022/11/19 07:28:40;;;;;;;10.40;7.53;;;-1.00;99.90;;;;;;6096980;23;93260;-73
2022/11/19 07:31:08;;;;;;;11.60;8.23;;;-1.00;99.90;;;;;;6070253;23;92437;-73
2022/11/19 07:33:37;;;;;;;9.82;7.05;;;-1.00;99.90;;;;;;6071435;23;91740;-73
2022/11/19 07:36:06;;;;;;;10.38;8.10;;;-0.90;99.90;;;;;;6096072;23;95277;-73
2022/11/19 07:38:34;;;;;;;10.60;8.00;;;-0.90;99.90;;;;;;6070274;23;92865;-73
2022/11/19 07:42:47;;;;;;;9.30;7.15;;;-0.90;99.90;;;;;;6095480;23;94764;-73
2022/11/19 07:43:51;;;;;;;9.88;7.80;;;-0.80;99.90;;;;;;6097037;23;92665;-73
2022/11/19 07:46:18;;;;;;;9.40;7.60;;;-0.80;99.90;;;;;;6069682;23;98496;-73
2022/11/19 07:48:45;;;;;;;10.65;8.27;;;-0.80;99.90;;;;;;6096684;23;92981;-73
2022/11/19 07:51:12;;;;;;;11.57;8.57;;;-0.70;99.90;;;;;;6070203;23;92460;-73
2022/11/19 07:53:39;;;;;;;9.23;8.10;;;-0.70;99.90;;;;;;6097177;23;92728;-73
2022/11/19 07:56:06;;;;;;;9.95;7.60;;;-0.60;99.90;;;;;;6069857;23;95714;-73
2022/11/19 07:58:33;;;;;;;11.60;8.02;;;-0.60;99.90;;;;;;6070658;23;93045;-73
2022/11/19 08:01:10;;;;;;;9.65;8.18;;;-0.60;99.90;;;;;;6070548;23;92458;-73
2022/11/19 08:03:37;;;;;;;10.63;8.15;;;-0.50;99.90;;;;;;6097068;23;92471;-73
2022/11/19 08:06:05;;;;;;;9.07;6.43;;;-0.50;99.90;;;;;;6044008;23;97939;-73
2022/11/19 08:08:32;;;;;;;12.85;8.57;;;-0.50;99.90;;;;;;6096284;23;95329;-73
2022/11/19 08:11:04;;;;;;;11.27;8.52;;;-0.40;99.90;;;;;;6096975;23;92409;-73
2022/11/19 08:13:32;;;;;;;10.48;7.50;;;-0.40;99.90;;;;;;6096734;23;92296;-73
2022/11/19 08:16:03;;;;;;;10.52;7.85;;;-0.40;99.90;;;;;;6070317;23;95690;-73
2022/11/19 08:18:31;;;;;;;11.10;8.07;;;-0.40;99.90;;;;;;6070154;23;96198;-73
2022/11/19 08:21:08;;;;;;;9.75;7.70;;;-0.40;99.90;;;;;;6096809;23;92333;-73
2022/11/19 08:23:37;;;;;;;10.90;7.43;;;-0.40;99.90;;;;;;6096966;23;91692;-73
2022/11/19 08:26:06;;;;;;;8.93;6.82;;;-0.40;99.90;;;;;;6096539;23;93298;-73
2022/11/19 08:28:34;;;;;;;9.52;8.05;;;-0.40;99.90;;;;;;6096471;23;92821;-73
2022/11/19 08:31:06;;;;;;;10.02;7.80;;;-0.30;99.90;;;;;;6093981;23;94853;-73
2022/11/19 08:33:33;;;;;;;11.98;8.57;;;-0.20;99.90;;;;;;6095144;23;92294;-73
2022/11/19 08:36:00;;;;;;;9.00;7.53;;;-0.20;99.90;;;;;;6069329;23;95599;-73
2022/11/19 08:38:27;;;;;;;10.25;7.43;;;-0.10;99.90;;;;;;6045919;23;95683;-73
2022/11/19 08:42:58;;;;;;;9.15;7.07;;;-0.10;99.90;;;;;;6096735;23;92305;-73
2022/11/19 08:43:41;;;;;;;10.15;7.70;;;0.00;99.90;;;;;;6096755;23;92296;-73
2022/11/19 08:46:08;;;;;;;10.20;7.18;;;0.10;99.90;;;;;;6096479;23;93026;-73
2022/11/19 08:48:36;;;;;;;9.48;7.60;;;0.10;99.90;;;;;;6096726;23;93010;-73
2022/11/19 08:51:05;;;;;;;9.57;7.20;;;0.20;99.90;;;;;;6070290;23;92472;-73
2022/11/19 08:53:32;;;;;;;9.60;6.82;;;0.20;99.90;;;;;;6096566;23;92450;-73
2022/11/19 08:55:59;;;;;;;11.13;8.15;;;0.30;99.90;;;;;;6095075;23;95456;-73
2022/11/19 08:58:26;;;;;;;9.35;8.25;;;0.30;99.90;;;;;;6069550;23;98069;-73
2022/11/19 09:00:53;;;;;;;10.02;7.82;;;0.40;99.90;;;;;;6070316;23;93156;-73
2022/11/19 09:03:20;;;;;;;7.63;6.82;;;0.50;99.90;;;;;;6069937;23;92514;-73
2022/11/19 09:05:47;;;;;;;8.82;7.32;;;0.50;99.90;;;;;;6096624;23;93205;-72
2022/11/19 09:08:14;;;;;;;6.75;5.40;;;0.50;99.90;;;;;;6096442;23;92912;-72
2022/11/19 09:10:41;;;;;;;9.30;6.45;;;0.60;99.90;;;;;;6070803;23;92364;-73
2022/11/19 09:13:08;;;;;;;10.45;8.45;;;0.60;99.90;;;;;;6097279;23;92159;-72
2022/11/19 09:15:35;;;;;;;11.10;9.35;;;0.70;99.90;;;;;;6045745;23;95669;-74
2022/11/19 09:18:02;;;;;;;10.63;7.68;;;0.70;99.90;;;;;;6070509;23;92889;-73
2022/11/19 09:20:29;;;;;;;10.13;7.78;;;0.80;99.90;;;;;;6095156;23;94703;-73
2022/11/19 09:22:56;;;;;;;10.60;6.95;;;0.80;99.90;;;;;;6046412;23;92567;-73
2022/11/19 09:25:22;;;;;;;10.10;7.47;;;0.80;99.90;;;;;;6069565;23;107100;-72
2022/11/19 09:27:49;;;;;;;9.68;7.90;;;0.90;99.90;;;;;;6069994;23;95338;-73
2022/11/19 09:30:16;;;;;;;8.95;7.93;;;1.00;99.90;;;;;;6096741;23;92318;-73
2022/11/19 09:32:43;;;;;;;10.38;7.32;;;1.00;99.90;;;;;;6096477;23;92393;-73
2022/11/19 09:35:10;;;;;;;9.13;7.95;;;1.10;99.90;;;;;;6069079;23;95826;-73
2022/11/19 09:37:37;;;;;;;9.50;7.63;;;1.20;99.90;;;;;;6070930;23;92887;-73
2022/11/19 09:40:05;;;;;;;9.93;7.53;;;1.20;99.90;;;;;;6096690;23;92396;-73
2022/11/19 09:42:43;;;;;;;8.30;7.45;;;1.20;99.90;;;;;;6069919;23;92489;-72
2022/11/19 09:45:24;;;;;;;9.40;8.20;;;1.30;99.90;;;;;;6094846;23;95538;-73
2022/11/19 09:48:00;;;;;;;8.25;7.13;;;1.40;99.90;;;;;;6096405;23;95226;-73
2022/11/19 09:50:44;;;;;;;8.30;7.25;;;1.40;99.90;;;;;;6045876;23;92494;-73
2022/11/19 09:53:21;;;;;;;8.75;7.57;;;1.50;99.90;;;;;;6070017;23;92994;-73
2022/11/19 09:55:51;;;;;;;11.35;8.50;;;1.50;99.90;;;;;;6096133;23;93370;-73
2022/11/19 09:58:24;;;;;;;10.80;7.75;;;1.60;99.90;;;;;;6069902;23;94150;-73
2022/11/19 10:00:51;;;;;;;10.85;8.63;;;1.70;99.90;;;;;;6096514;23;92343;-73
2022/11/19 10:03:23;;;;;;;10.00;7.60;;;1.70;99.90;;;;;;6070743;23;92253;-73
2022/11/19 10:06:05;;;;;;;11.57;7.72;;;1.80;99.90;;;;;;6069842;23;95466;-73
2022/11/19 10:08:43;;;;;;;8.40;6.95;;;1.80;99.90;;;;;;6069605;23;95591;-73
2022/11/19 10:11:40;;;;;;;8.88;6.82;;;1.90;99.90;;;;;;6095043;23;94740;-73
2022/11/19 10:14:28;;;;;;;8.90;6.70;;;2.00;99.90;;;;;;6096441;23;92981;-73
2022/11/19 10:17:04;;;;;;;8.23;6.55;;;2.00;99.90;;;;;;6069753;23;95537;-73
2022/11/19 10:19:53;;;;;;;9.10;6.53;;;2.00;99.90;;;;;;6095671;23;92797;-73
2022/11/19 10:22:35;;;;;;;7.65;5.82;;;2.10;99.90;;;;;;6070074;23;92728;-73
2022/11/19 10:25:13;;;;;;;8.05;7.18;;;2.00;99.90;;;;;;6096236;23;92307;-73
2022/11/19 10:27:50;;;;;;;7.75;6.90;;;2.10;99.90;;;;;;6095976;23;93115;-73
2022/11/19 10:30:22;;;;;;;7.65;6.68;;;2.20;99.90;;;;;;6070324;23;91779;-73
2022/11/19 10:33:29;;;;;;;8.43;6.45;;;2.20;99.90;;;;;;6094909;23;92433;-73
2022/11/19 10:36:10;;;;;;;7.07;5.60;;;2.30;99.90;;;;;;6080349;23;92379;-73
2022/11/19 10:38:59;;;;;;;7.90;6.25;;;2.30;99.90;;;;;;6094106;23;95304;-73
2022/11/19 10:41:45;;;;;;;9.43;6.13;;;2.40;99.90;;;;;;6095809;23;95297;-74
2022/11/19 10:44:39;;;;;;;7.60;6.82;;;2.30;99.90;;;;;;6070062;23;92549;-73
2022/11/19 10:47:32;;;;;;;6.93;5.63;;;2.40;99.90;;;;;;6094747;23;92477;-73
2022/11/19 10:49:59;;;;;;;8.05;6.38;;;2.40;99.90;;;;;;6054516;23;96314;-73
2022/11/19 10:52:36;;;;;;;6.60;6.00;;;2.40;99.90;;;;;;6068679;23;95843;-73
2022/11/19 10:55:54;;;;;;;7.07;5.57;;;2.40;99.90;;;;;;6094721;23;92431;-74
2022/11/19 10:58:28;;;;;;;7.30;5.55;;;2.50;99.90;;;;;;6049046;23;91660;-73
2022/11/19 11:00:58;;;;;;;6.70;5.93;;;2.60;99.90;;;;;;6095598;23;93355;-73
2022/11/19 11:03:47;;;;;;;7.70;6.07;;;2.70;99.90;;;;;;6094425;23;94087;-73
2022/11/19 11:06:15;;;;;;;7.80;6.22;;;2.70;99.90;;;;;;6092891;23;94841;-73
2022/11/19 11:08:49;;;;;;;8.68;6.03;;;2.70;99.90;;;;;;6069293;23;92523;-73
2022/11/19 11:17:15;;;;;;;7.57;5.45;;;3.00;99.90;;;;;;6095739;23;92408;-73
2022/11/19 11:19:42;;;;;;;9.13;6.35;;;3.10;99.90;;;;;;6069213;23;92779;-73
2022/11/19 11:22:09;;;;;;;6.20;5.38;;;3.20;99.90;;;;;;6069070;23;92422;-73
2022/11/19 11:24:37;;;;;;;6.55;5.60;;;3.20;99.90;;;;;;6069638;23;93038;-73
2022/11/19 11:27:32;;;;;;;6.38;5.25;;;3.20;99.90;;;;;;6069652;23;92527;-73
2022/11/19 11:30:11;;;;;;;6.85;5.47;;;3.40;99.90;;;;;;6091471;23;93463;-73
2022/11/19 11:32:39;;;;;;;6.20;4.93;;;3.40;99.90;;;;;;6093867;23;95658;-73
2022/11/19 11:35:27;;;;;;;6.05;5.32;;;3.40;99.90;;;;;;6068753;23;95274;-73
2022/11/19 11:37:54;;;;;;;6.70;5.40;;;3.50;99.90;;;;;;6044798;23;92395;-74
2022/11/19 11:40:22;;;;;;;5.35;4.85;;;3.50;99.90;;;;;;6069103;23;92448;-74
2022/11/19 11:42:51;;;;;;;6.72;5.75;;;3.60;99.90;;;;;;6095061;23;93161;-73
2022/11/19 11:45:35;;;;;;;6.05;5.20;;;3.60;99.90;;;;;;6095340;23;92971;-73
2022/11/19 11:48:07;;;;;;;6.38;5.20;;;3.70;99.90;;;;;;6068955;23;92541;-73
2022/11/19 11:50:36;;;;;;;6.05;4.43;;;3.70;99.90;;;;;;6096003;23;91586;-74
2022/11/19 11:53:08;;;;;;;6.18;4.40;;;3.70;99.80;;;;;;6068992;23;93171;-74
2022/11/19 11:55:37;;;;;;;5.70;4.68;;;3.70;99.90;;;;;;6095125;23;92603;-74
2022/11/19 11:58:22;;;;;;;7.03;5.97;;;3.70;99.90;;;;;;6094393;23;95231;-74
2022/11/19 12:00:53;;;;;;;6.32;5.47;;;3.80;99.90;;;;;;6096390;23;92781;-74
2022/11/19 12:03:21;;;;;;;6.60;4.90;;;3.80;99.90;;;;;;6069900;23;95614;-74
2022/11/19 12:05:57;;;;;;;6.32;5.72;;;3.80;99.90;;;;;;6096223;23;93078;-74
2022/11/19 12:08:46;;;;;;;5.05;4.55;;;3.80;99.90;;;;;;6046158;23;92427;-73
2022/11/19 12:11:52;;;;;;;5.90;4.50;;;3.90;99.90;;;;;;6096785;23;92304;-74
2022/11/19 12:14:20;;;;;;;5.35;4.50;;;3.90;99.90;;;;;;6069728;23;94158;-73
2022/11/19 12:17:14;;;;;;;6.75;5.40;;;3.90;99.90;;;;;;6096725;23;91720;-73
2022/11/19 12:20:05;;;;;;;5.18;4.43;;;4.00;99.90;;;;;;6097140;23;93056;-74
2022/11/19 12:23:03;;;;;;;6.13;4.82;;;4.10;99.90;;;;;;6096696;23;92338;-74
2022/11/19 12:25:43;;;;;;;6.03;4.90;;;4.20;99.90;;;;;;6044518;23;97762;-74
2022/11/19 12:28:28;;;;;;;5.45;4.63;;;4.20;99.90;;;;;;6096548;23;95399;-74
2022/11/19 12:31:24;;;;;;;4.95;4.13;;;4.30;99.90;;;;;;6096860;23;92526;-74
2022/11/19 12:34:14;;;;;;;5.20;4.55;;;4.30;99.90;;;;;;6070041;23;92344;-74
2022/11/19 12:36:51;;;;;;;7.65;5.18;;;4.40;99.90;;;;;;6070167;23;95809;-74
2022/11/19 12:39:45;;;;;;;4.70;4.20;;;4.40;99.90;;;;;;6096436;23;93047;-74
2022/11/19 12:42:32;;;;;;;6.53;4.85;;;4.40;99.90;;;;;;6096532;23;92468;-74
2022/11/19 12:45:37;;;;;;;9.77;4.93;;;4.40;99.90;;;;;;6070248;23;91755;-74
2022/11/19 12:48:25;;;;;;;4.63;3.95;;;4.50;99.90;;;;;;6096409;23;92961;-74
2022/11/19 12:51:19;;;;;;;6.32;4.65;;;4.50;99.90;;;;;;6069683;23;95691;-74
2022/11/19 12:54:17;;;;;;;6.53;4.47;;;4.60;99.90;;;;;;6080237;23;94947;-74
2022/11/19 12:57:29;;;;;;;4.75;3.90;;;4.70;99.90;;;;;;6072174;23;92381;-74
2022/11/19 13:00:04;;;;;;;5.22;4.57;;;4.70;99.90;;;;;;6076125;23;93495;-74
2022/11/19 13:02:41;;;;;;;5.22;4.13;;;4.70;99.90;;;;;;6070127;23;92978;-75
2022/11/19 13:05:52;;;;;;;4.30;3.75;;;4.70;99.90;;;;;;6096315;23;92338;-74
2022/11/19 13:08:39;;;;;;;4.85;4.10;;;4.70;99.90;;;;;;6096255;23;92390;-74
2022/11/19 13:11:35;;;;;;;6.20;4.00;;;4.70;99.90;;;;;;6069861;23;93866;-74
2022/11/19 13:14:10;;;;;;;4.95;3.97;;;4.80;99.90;;;;;;6081349;23;93752;-74
2022/11/19 13:16:38;;;;;;;6.50;4.20;;;4.80;99.90;;;;;;6096606;23;92391;-74
2022/11/19 13:19:18;;;;;;;6.53;4.25;;;4.80;99.90;;;;;;6069635;23;92425;-74
2022/11/19 13:21:53;;;;;;;5.70;4.85;;;4.90;99.90;;;;;;6067992;23;98028;-74
2022/11/19 13:24:28;;;;;;;;;;;4.90;99.90;;;;;;6045704;23;96468;-74
2022/11/19 13:27:00;;;;;;;5.72;4.25;;;4.80;99.90;;;;;;6097806;23;92405;-74
2022/11/19 13:29:46;;;;;;;5.63;4.25;;;4.90;99.90;;;;;;6070010;23;92559;-74
2022/11/19 13:32:25;;;;;;;5.30;4.50;;;4.90;99.90;;;;;;6095997;23;93067;-74
2022/11/19 13:34:58;;;;;;;5.65;4.57;;;4.90;99.90;;;;;;6069716;23;96267;-74
2022/11/19 13:37:46;;;;;;;4.65;4.03;;;5.00;99.90;;;;;;6096343;23;92378;-74
2022/11/19 13:40:23;;;;;;;6.65;4.82;;;5.00;99.90;;;;;;6096613;23;91575;-74